sensor_id;sensor_type;location;lat;lon;timestamp;P1;durP1;ratioP1;P2;durP2;ratioP2
25922;SDS011;13725;51.170;4.442;2024-01-25T00:01:12;60.50;;;9.13;;
25922;SDS011;13725;51.170;4.442;2024-01-25T00:03:38;55.03;;;7.38;;
25922;SDS011;13725;51.170;4.442;2024-01-25T00:06:04;51.47;;;7.78;;
25922;SDS011;13725;51.170;4.442;2024-01-25T00:08:31;56.92;;;8.00;;
25922;SDS011;13725;51.170;4.442;2024-01-25T00:10:57;55.40;;;7.13;;
25922;SDS011;13725;51.170;4.442;2024-01-25T00:13:23;61.67;;;9.52;;
25922;SDS011;13725;51.170;4.442;2024-01-25T00:15:48;51.55;;;7.90;;
25922;SDS011;13725;51.170;4.442;2024-01-25T00:18:14;64.40;;;7.38;;
25922;SDS011;13725;51.170;4.442;2024-01-25T00:20:40;65.05;;;8.00;;
25922;SDS011;13725;51.170;4.442;2024-01-25T00:23:06;62.20;;;8.30;;
25922;SDS011;13725;51.170;4.442;2024-01-25T00:25:32;64.55;;;9.02;;
25922;SDS011;13725;51.170;4.442;2024-01-25T00:27:58;43.75;;;8.57;;
25922;SDS011;13725;51.170;4.442;2024-01-25T00:30:23;61.85;;;7.70;;
25922;SDS011;13725;51.170;4.442;2024-01-25T00:32:49;68.18;;;8.00;;
25922;SDS011;13725;51.170;4.442;2024-01-25T00:35:15;54.60;;;8.50;;
25922;SDS011;13725;51.170;4.442;2024-01-25T00:37:41;66.32;;;7.50;;
25922;SDS011;13725;51.170;4.442;2024-01-25T00:40:08;51.75;;;8.30;;
25922;SDS011;13725;51.170;4.442;2024-01-25T00:42:38;60.65;;;7.38;;
25922;SDS011;13725;51.170;4.442;2024-01-25T00:45:08;45.10;;;7.38;;
25922;SDS011;13725;51.170;4.442;2024-01-25T00:47:34;55.40;;;8.40;;
25922;SDS011;13725;51.170;4.442;2024-01-25T00:50:00;63.53;;;7.55;;
25922;SDS011;13725;51.170;4.442;2024-01-25T00:52:26;60.53;;;8.60;;
25922;SDS011;13725;51.170;4.442;2024-01-25T00:54:52;62.45;;;7.78;;
25922;SDS011;13725;51.170;4.442;2024-01-25T00:57:18;56.80;;;8.57;;
25922;SDS011;13725;51.170;4.442;2024-01-25T00:59:44;54.20;;;7.25;;
25922;SDS011;13725;51.170;4.442;2024-01-25T01:02:10;66.00;;;7.07;;
25922;SDS011;13725;51.170;4.442;2024-01-25T01:04:38;60.75;;;8.65;;
25922;SDS011;13725;51.170;4.442;2024-01-25T01:07:05;63.38;;;10.40;;
25922;SDS011;13725;51.170;4.442;2024-01-25T01:09:31;63.30;;;10.05;;
25922;SDS011;13725;51.170;4.442;2024-01-25T01:11:57;67.50;;;7.95;;
25922;SDS011;13725;51.170;4.442;2024-01-25T01:14:23;51.55;;;7.80;;
25922;SDS011;13725;51.170;4.442;2024-01-25T01:16:49;60.28;;;7.80;;
25922;SDS011;13725;51.170;4.442;2024-01-25T01:19:16;66.85;;;9.27;;
25922;SDS011;13725;51.170;4.442;2024-01-25T01:21:42;60.80;;;8.65;;
25922;SDS011;13725;51.170;4.442;2024-01-25T01:24:12;56.47;;;8.30;;
25922;SDS011;13725;51.170;4.442;2024-01-25T01:26:38;59.83;;;7.25;;
25922;SDS011;13725;51.170;4.442;2024-01-25T01:29:04;50.47;;;8.15;;
25922;SDS011;13725;51.170;4.442;2024-01-25T01:31:30;52.30;;;7.18;;
25922;SDS011;13725;51.170;4.442;2024-01-25T01:33:56;72.95;;;8.82;;
25922;SDS011;13725;51.170;4.442;2024-01-25T01:36:23;60.28;;;9.75;;
25922;SDS011;13725;51.170;4.442;2024-01-25T01:38:48;78.65;;;9.15;;
25922;SDS011;13725;51.170;4.442;2024-01-25T01:41:14;60.13;;;8.82;;
25922;SDS011;13725;51.170;4.442;2024-01-25T01:43:40;61.70;;;7.25;;
25922;SDS011;13725;51.170;4.442;2024-01-25T01:49:13;53.15;;;7.90;;
25922;SDS011;13725;51.170;4.442;2024-01-25T01:51:40;53.35;;;7.70;;
25922;SDS011;13725;51.170;4.442;2024-01-25T01:54:08;72.60;;;9.55;;
25922;SDS011;13725;51.170;4.442;2024-01-25T01:56:34;57.25;;;7.43;;
25922;SDS011;13725;51.170;4.442;2024-01-25T01:59:01;67.82;;;8.32;;
25922;SDS011;13725;51.170;4.442;2024-01-25T02:01:29;55.15;;;6.78;;
25922;SDS011;13725;51.170;4.442;2024-01-25T02:03:55;54.42;;;8.27;;
25922;SDS011;13725;51.170;4.442;2024-01-25T02:06:21;65.90;;;8.30;;
25922;SDS011;13725;51.170;4.442;2024-01-25T02:08:51;62.42;;;8.25;;
25922;SDS011;13725;51.170;4.442;2024-01-25T02:11:18;59.00;;;7.57;;
25922;SDS011;13725;51.170;4.442;2024-01-25T02:13:45;54.03;;;7.95;;
25922;SDS011;13725;51.170;4.442;2024-01-25T02:16:12;55.67;;;7.22;;
25922;SDS011;13725;51.170;4.442;2024-01-25T02:18:40;63.78;;;7.57;;
25922;SDS011;13725;51.170;4.442;2024-01-25T02:21:06;80.30;;;8.23;;
25922;SDS011;13725;51.170;4.442;2024-01-25T02:23:32;65.25;;;8.40;;
25922;SDS011;13725;51.170;4.442;2024-01-25T02:25:58;50.67;;;7.53;;
25922;SDS011;13725;51.170;4.442;2024-01-25T02:28:24;63.97;;;8.68;;
25922;SDS011;13725;51.170;4.442;2024-01-25T02:30:50;44.97;;;7.25;;
25922;SDS011;13725;51.170;4.442;2024-01-25T02:33:16;54.55;;;6.35;;
25922;SDS011;13725;51.170;4.442;2024-01-25T02:35:42;68.63;;;10.13;;
25922;SDS011;13725;51.170;4.442;2024-01-25T02:38:07;57.90;;;7.65;;
25922;SDS011;13725;51.170;4.442;2024-01-25T02:40:33;77.72;;;8.00;;
25922;SDS011;13725;51.170;4.442;2024-01-25T02:42:59;68.47;;;8.32;;
25922;SDS011;13725;51.170;4.442;2024-01-25T02:45:25;58.88;;;7.95;;
25922;SDS011;13725;51.170;4.442;2024-01-25T02:47:50;71.47;;;8.25;;
25922;SDS011;13725;51.170;4.442;2024-01-25T02:50:16;52.90;;;6.75;;
25922;SDS011;13725;51.170;4.442;2024-01-25T02:52:42;62.75;;;7.78;;
25922;SDS011;13725;51.170;4.442;2024-01-25T02:55:08;58.33;;;7.32;;
25922;SDS011;13725;51.170;4.442;2024-01-25T02:57:33;55.90;;;6.55;;
25922;SDS011;13725;51.170;4.442;2024-01-25T02:59:59;57.08;;;6.25;;
25922;SDS011;13725;51.170;4.442;2024-01-25T03:02:27;57.40;;;6.95;;
25922;SDS011;13725;51.170;4.442;2024-01-25T03:04:52;58.58;;;11.00;;
25922;SDS011;13725;51.170;4.442;2024-01-25T03:07:18;49.22;;;6.60;;
25922;SDS011;13725;51.170;4.442;2024-01-25T03:09:44;52.30;;;6.25;;
25922;SDS011;13725;51.170;4.442;2024-01-25T03:12:10;47.88;;;6.63;;
25922;SDS011;13725;51.170;4.442;2024-01-25T03:14:35;52.25;;;6.68;;
25922;SDS011;13725;51.170;4.442;2024-01-25T03:17:01;65.18;;;9.55;;
25922;SDS011;13725;51.170;4.442;2024-01-25T03:19:27;53.40;;;7.97;;
25922;SDS011;13725;51.170;4.442;2024-01-25T03:21:53;56.75;;;7.00;;
25922;SDS011;13725;51.170;4.442;2024-01-25T03:24:20;52.88;;;8.07;;
25922;SDS011;13725;51.170;4.442;2024-01-25T03:26:46;44.85;;;6.45;;
25922;SDS011;13725;51.170;4.442;2024-01-25T03:29:12;54.83;;;8.27;;
25922;SDS011;13725;51.170;4.442;2024-01-25T03:31:37;57.13;;;7.30;;
25922;SDS011;13725;51.170;4.442;2024-01-25T03:34:03;56.17;;;6.90;;
25922;SDS011;13725;51.170;4.442;2024-01-25T03:36:30;49.42;;;6.68;;
25922;SDS011;13725;51.170;4.442;2024-01-25T03:38:56;45.22;;;6.38;;
25922;SDS011;13725;51.170;4.442;2024-01-25T03:41:22;50.67;;;7.05;;
25922;SDS011;13725;51.170;4.442;2024-01-25T03:43:49;51.13;;;6.65;;
25922;SDS011;13725;51.170;4.442;2024-01-25T03:46:15;42.33;;;5.95;;
25922;SDS011;13725;51.170;4.442;2024-01-25T03:48:41;47.33;;;6.20;;
25922;SDS011;13725;51.170;4.442;2024-01-25T03:51:07;53.45;;;6.65;;
25922;SDS011;13725;51.170;4.442;2024-01-25T03:53:33;38.85;;;6.90;;
25922;SDS011;13725;51.170;4.442;2024-01-25T03:55:59;50.20;;;6.47;;
25922;SDS011;13725;51.170;4.442;2024-01-25T03:58:25;35.05;;;5.68;;
25922;SDS011;13725;51.170;4.442;2024-01-25T04:00:50;39.17;;;6.22;;
25922;SDS011;13725;51.170;4.442;2024-01-25T04:03:16;56.40;;;6.95;;
25922;SDS011;13725;51.170;4.442;2024-01-25T04:05:42;37.80;;;5.72;;
25922;SDS011;13725;51.170;4.442;2024-01-25T04:08:08;44.45;;;6.78;;
25922;SDS011;13725;51.170;4.442;2024-01-25T04:10:35;33.70;;;7.75;;
25922;SDS011;13725;51.170;4.442;2024-01-25T04:13:02;35.00;;;5.95;;
25922;SDS011;13725;51.170;4.442;2024-01-25T04:15:32;44.00;;;6.80;;
25922;SDS011;13725;51.170;4.442;2024-01-25T04:17:58;34.30;;;5.63;;
25922;SDS011;13725;51.170;4.442;2024-01-25T04:20:24;39.85;;;5.95;;
25922;SDS011;13725;51.170;4.442;2024-01-25T04:22:49;48.25;;;6.28;;
25922;SDS011;13725;51.170;4.442;2024-01-25T04:25:15;39.30;;;6.82;;
25922;SDS011;13725;51.170;4.442;2024-01-25T04:27:41;39.53;;;6.40;;
25922;SDS011;13725;51.170;4.442;2024-01-25T04:30:07;47.83;;;7.07;;
25922;SDS011;13725;51.170;4.442;2024-01-25T04:32:33;46.60;;;6.43;;
25922;SDS011;13725;51.170;4.442;2024-01-25T04:34:59;50.30;;;6.72;;
25922;SDS011;13725;51.170;4.442;2024-01-25T04:37:25;32.63;;;5.38;;
25922;SDS011;13725;51.170;4.442;2024-01-25T04:39:51;37.33;;;6.63;;
25922;SDS011;13725;51.170;4.442;2024-01-25T04:42:16;47.83;;;7.47;;
25922;SDS011;13725;51.170;4.442;2024-01-25T04:44:42;34.70;;;6.45;;
25922;SDS011;13725;51.170;4.442;2024-01-25T04:47:08;43.63;;;6.72;;
25922;SDS011;13725;51.170;4.442;2024-01-25T04:49:34;41.22;;;6.78;;
25922;SDS011;13725;51.170;4.442;2024-01-25T04:52:00;46.70;;;6.80;;
25922;SDS011;13725;51.170;4.442;2024-01-25T04:54:26;51.00;;;7.28;;
25922;SDS011;13725;51.170;4.442;2024-01-25T04:56:52;53.72;;;6.63;;
25922;SDS011;13725;51.170;4.442;2024-01-25T04:59:18;51.78;;;7.28;;
25922;SDS011;13725;51.170;4.442;2024-01-25T05:01:44;53.83;;;6.80;;
25922;SDS011;13725;51.170;4.442;2024-01-25T05:04:09;46.30;;;5.75;;
25922;SDS011;13725;51.170;4.442;2024-01-25T05:06:35;44.50;;;5.70;;
25922;SDS011;13725;51.170;4.442;2024-01-25T05:09:01;45.88;;;6.25;;
25922;SDS011;13725;51.170;4.442;2024-01-25T05:11:28;48.45;;;6.57;;
25922;SDS011;13725;51.170;4.442;2024-01-25T05:13:54;40.78;;;5.85;;
25922;SDS011;13725;51.170;4.442;2024-01-25T05:16:19;39.75;;;6.68;;
25922;SDS011;13725;51.170;4.442;2024-01-25T05:18:45;33.55;;;5.43;;
25922;SDS011;13725;51.170;4.442;2024-01-25T05:21:11;43.38;;;7.25;;
25922;SDS011;13725;51.170;4.442;2024-01-25T05:23:37;36.22;;;5.50;;
25922;SDS011;13725;51.170;4.442;2024-01-25T05:26:02;43.45;;;6.72;;
25922;SDS011;13725;51.170;4.442;2024-01-25T05:28:28;41.33;;;6.13;;
25922;SDS011;13725;51.170;4.442;2024-01-25T05:30:54;39.35;;;6.38;;
25922;SDS011;13725;51.170;4.442;2024-01-25T05:33:19;37.28;;;6.25;;
25922;SDS011;13725;51.170;4.442;2024-01-25T05:35:45;37.22;;;5.75;;
25922;SDS011;13725;51.170;4.442;2024-01-25T05:38:11;28.30;;;6.20;;
25922;SDS011;13725;51.170;4.442;2024-01-25T05:40:36;29.65;;;5.93;;
25922;SDS011;13725;51.170;4.442;2024-01-25T05:43:02;45.47;;;5.53;;
25922;SDS011;13725;51.170;4.442;2024-01-25T05:45:28;42.13;;;5.70;;
25922;SDS011;13725;51.170;4.442;2024-01-25T05:47:54;35.03;;;6.07;;
25922;SDS011;13725;51.170;4.442;2024-01-25T05:50:19;41.95;;;6.32;;
25922;SDS011;13725;51.170;4.442;2024-01-25T05:52:45;34.50;;;5.70;;
25922;SDS011;13725;51.170;4.442;2024-01-25T05:55:11;34.30;;;5.68;;
25922;SDS011;13725;51.170;4.442;2024-01-25T05:57:39;33.53;;;7.07;;
25922;SDS011;13725;51.170;4.442;2024-01-25T06:00:07;38.63;;;6.93;;
25922;SDS011;13725;51.170;4.442;2024-01-25T06:02:36;46.47;;;6.10;;
25922;SDS011;13725;51.170;4.442;2024-01-25T06:05:02;48.38;;;7.00;;
25922;SDS011;13725;51.170;4.442;2024-01-25T06:07:28;55.90;;;7.25;;
25922;SDS011;13725;51.170;4.442;2024-01-25T06:09:53;42.90;;;6.90;;
25922;SDS011;13725;51.170;4.442;2024-01-25T06:12:19;45.65;;;6.70;;
25922;SDS011;13725;51.170;4.442;2024-01-25T06:14:45;36.25;;;6.72;;
25922;SDS011;13725;51.170;4.442;2024-01-25T06:17:11;36.95;;;7.20;;
25922;SDS011;13725;51.170;4.442;2024-01-25T06:19:36;46.22;;;6.88;;
25922;SDS011;13725;51.170;4.442;2024-01-25T06:22:02;70.93;;;8.57;;
25922;SDS011;13725;51.170;4.442;2024-01-25T06:24:28;55.70;;;8.73;;
25922;SDS011;13725;51.170;4.442;2024-01-25T06:26:54;51.65;;;7.63;;
25922;SDS011;13725;51.170;4.442;2024-01-25T06:29:20;64.38;;;8.18;;
25922;SDS011;13725;51.170;4.442;2024-01-25T06:31:45;42.33;;;7.35;;
25922;SDS011;13725;51.170;4.442;2024-01-25T06:34:12;48.03;;;8.10;;
25922;SDS011;13725;51.170;4.442;2024-01-25T06:36:38;41.20;;;8.20;;
25922;SDS011;13725;51.170;4.442;2024-01-25T06:39:03;62.95;;;9.30;;
25922;SDS011;13725;51.170;4.442;2024-01-25T06:41:30;56.75;;;8.10;;
25922;SDS011;13725;51.170;4.442;2024-01-25T06:43:55;50.15;;;7.00;;
25922;SDS011;13725;51.170;4.442;2024-01-25T06:46:21;65.10;;;8.32;;
25922;SDS011;13725;51.170;4.442;2024-01-25T06:48:47;49.35;;;7.80;;
25922;SDS011;13725;51.170;4.442;2024-01-25T06:51:14;63.00;;;8.95;;
25922;SDS011;13725;51.170;4.442;2024-01-25T06:53:39;46.42;;;7.40;;
25922;SDS011;13725;51.170;4.442;2024-01-25T06:56:05;50.00;;;7.95;;
25922;SDS011;13725;51.170;4.442;2024-01-25T06:58:31;48.53;;;7.25;;
25922;SDS011;13725;51.170;4.442;2024-01-25T07:00:57;52.60;;;7.55;;
25922;SDS011;13725;51.170;4.442;2024-01-25T07:03:24;47.05;;;7.70;;
25922;SDS011;13725;51.170;4.442;2024-01-25T07:05:49;45.65;;;6.97;;
25922;SDS011;13725;51.170;4.442;2024-01-25T07:08:15;65.95;;;9.38;;
25922;SDS011;13725;51.170;4.442;2024-01-25T07:10:41;58.10;;;8.18;;
25922;SDS011;13725;51.170;4.442;2024-01-25T07:13:07;54.90;;;8.90;;
25922;SDS011;13725;51.170;4.442;2024-01-25T07:15:33;60.33;;;9.80;;
25922;SDS011;13725;51.170;4.442;2024-01-25T07:17:59;72.38;;;9.05;;
25922;SDS011;13725;51.170;4.442;2024-01-25T07:20:25;63.45;;;8.65;;
25922;SDS011;13725;51.170;4.442;2024-01-25T07:22:50;44.28;;;7.65;;
25922;SDS011;13725;51.170;4.442;2024-01-25T07:25:16;63.05;;;8.38;;
25922;SDS011;13725;51.170;4.442;2024-01-25T07:27:45;50.75;;;8.82;;
25922;SDS011;13725;51.170;4.442;2024-01-25T07:30:12;59.80;;;9.25;;
25922;SDS011;13725;51.170;4.442;2024-01-25T07:32:38;69.70;;;8.38;;
25922;SDS011;13725;51.170;4.442;2024-01-25T07:35:07;59.35;;;8.15;;
25922;SDS011;13725;51.170;4.442;2024-01-25T07:37:37;48.97;;;7.78;;
25922;SDS011;13725;51.170;4.442;2024-01-25T07:40:04;58.97;;;8.77;;
25922;SDS011;13725;51.170;4.442;2024-01-25T07:42:30;64.30;;;8.23;;
25922;SDS011;13725;51.170;4.442;2024-01-25T07:44:57;62.00;;;9.52;;
25922;SDS011;13725;51.170;4.442;2024-01-25T07:47:23;52.10;;;8.18;;
25922;SDS011;13725;51.170;4.442;2024-01-25T07:49:48;64.32;;;8.82;;
25922;SDS011;13725;51.170;4.442;2024-01-25T07:52:14;62.25;;;8.45;;
25922;SDS011;13725;51.170;4.442;2024-01-25T07:54:40;61.95;;;8.50;;
25922;SDS011;13725;51.170;4.442;2024-01-25T07:57:06;65.50;;;8.00;;
25922;SDS011;13725;51.170;4.442;2024-01-25T07:59:32;57.65;;;8.25;;
25922;SDS011;13725;51.170;4.442;2024-01-25T08:01:57;56.13;;;8.70;;
25922;SDS011;13725;51.170;4.442;2024-01-25T08:04:23;65.80;;;8.65;;
25922;SDS011;13725;51.170;4.442;2024-01-25T08:06:51;59.60;;;8.90;;
25922;SDS011;13725;51.170;4.442;2024-01-25T08:09:17;46.17;;;7.53;;
25922;SDS011;13725;51.170;4.442;2024-01-25T08:11:44;65.28;;;8.48;;
25922;SDS011;13725;51.170;4.442;2024-01-25T08:14:10;56.80;;;8.05;;
25922;SDS011;13725;51.170;4.442;2024-01-25T08:16:36;59.58;;;8.35;;
25922;SDS011;13725;51.170;4.442;2024-01-25T08:19:02;42.10;;;8.07;;
25922;SDS011;13725;51.170;4.442;2024-01-25T08:21:29;62.67;;;10.15;;
25922;SDS011;13725;51.170;4.442;2024-01-25T08:23:55;77.55;;;9.05;;
25922;SDS011;13725;51.170;4.442;2024-01-25T08:26:21;64.25;;;9.85;;
25922;SDS011;13725;51.170;4.442;2024-01-25T08:28:47;56.92;;;9.15;;
25922;SDS011;13725;51.170;4.442;2024-01-25T08:31:13;75.68;;;10.05;;
25922;SDS011;13725;51.170;4.442;2024-01-25T08:33:39;64.95;;;9.52;;
25922;SDS011;13725;51.170;4.442;2024-01-25T08:36:09;70.20;;;10.15;;
25922;SDS011;13725;51.170;4.442;2024-01-25T08:38:36;67.18;;;10.07;;
25922;SDS011;13725;51.170;4.442;2024-01-25T08:41:02;59.25;;;10.10;;
25922;SDS011;13725;51.170;4.442;2024-01-25T08:43:28;51.97;;;9.73;;
25922;SDS011;13725;51.170;4.442;2024-01-25T08:45:54;61.13;;;10.10;;
25922;SDS011;13725;51.170;4.442;2024-01-25T08:48:19;65.88;;;10.30;;
25922;SDS011;13725;51.170;4.442;2024-01-25T08:50:45;63.08;;;9.82;;
25922;SDS011;13725;51.170;4.442;2024-01-25T08:53:11;63.45;;;10.70;;
25922;SDS011;13725;51.170;4.442;2024-01-25T08:55:37;64.35;;;9.88;;
25922;SDS011;13725;51.170;4.442;2024-01-25T08:58:03;75.10;;;10.70;;
25922;SDS011;13725;51.170;4.442;2024-01-25T09:00:29;56.53;;;9.80;;
25922;SDS011;13725;51.170;4.442;2024-01-25T09:02:55;68.10;;;10.90;;
25922;SDS011;13725;51.170;4.442;2024-01-25T09:05:21;55.70;;;10.73;;
25922;SDS011;13725;51.170;4.442;2024-01-25T09:07:47;54.00;;;9.43;;
25922;SDS011;13725;51.170;4.442;2024-01-25T09:10:15;61.83;;;9.88;;
25922;SDS011;13725;51.170;4.442;2024-01-25T09:12:41;62.05;;;9.55;;
25922;SDS011;13725;51.170;4.442;2024-01-25T09:15:07;56.25;;;10.50;;
25922;SDS011;13725;51.170;4.442;2024-01-25T09:17:33;60.38;;;10.68;;
25922;SDS011;13725;51.170;4.442;2024-01-25T09:19:59;57.88;;;10.80;;
25922;SDS011;13725;51.170;4.442;2024-01-25T09:22:25;64.25;;;10.90;;
25922;SDS011;13725;51.170;4.442;2024-01-25T09:24:51;40.22;;;10.25;;
25922;SDS011;13725;51.170;4.442;2024-01-25T09:27:16;51.55;;;10.65;;
25922;SDS011;13725;51.170;4.442;2024-01-25T09:29:42;45.70;;;10.43;;
25922;SDS011;13725;51.170;4.442;2024-01-25T09:32:08;49.40;;;11.93;;
25922;SDS011;13725;51.170;4.442;2024-01-25T09:34:35;55.45;;;12.63;;
25922;SDS011;13725;51.170;4.442;2024-01-25T09:37:02;42.63;;;12.57;;
25922;SDS011;13725;51.170;4.442;2024-01-25T09:39:28;55.55;;;13.13;;
25922;SDS011;13725;51.170;4.442;2024-01-25T09:41:54;54.78;;;14.20;;
25922;SDS011;13725;51.170;4.442;2024-01-25T09:44:20;48.20;;;13.77;;
25922;SDS011;13725;51.170;4.442;2024-01-25T09:46:46;44.95;;;14.32;;
25922;SDS011;13725;51.170;4.442;2024-01-25T09:49:12;45.75;;;13.68;;
25922;SDS011;13725;51.170;4.442;2024-01-25T09:51:39;45.83;;;13.18;;
25922;SDS011;13725;51.170;4.442;2024-01-25T09:54:07;42.83;;;11.52;;
25922;SDS011;13725;51.170;4.442;2024-01-25T09:56:33;40.33;;;12.55;;
25922;SDS011;13725;51.170;4.442;2024-01-25T09:58:59;47.15;;;13.30;;
25922;SDS011;13725;51.170;4.442;2024-01-25T10:01:26;50.60;;;13.15;;
25922;SDS011;13725;51.170;4.442;2024-01-25T10:03:52;51.38;;;14.27;;
25922;SDS011;13725;51.170;4.442;2024-01-25T10:06:22;41.60;;;14.63;;
25922;SDS011;13725;51.170;4.442;2024-01-25T10:08:49;56.25;;;18.38;;
25922;SDS011;13725;51.170;4.442;2024-01-25T10:11:15;77.95;;;18.13;;
25922;SDS011;13725;51.170;4.442;2024-01-25T10:13:42;75.75;;;20.40;;
25922;SDS011;13725;51.170;4.442;2024-01-25T10:16:15;56.83;;;17.05;;
25922;SDS011;13725;51.170;4.442;2024-01-25T10:18:45;68.15;;;16.80;;
25922;SDS011;13725;51.170;4.442;2024-01-25T10:21:13;54.75;;;14.93;;
25922;SDS011;13725;51.170;4.442;2024-01-25T10:23:40;59.33;;;16.50;;
25922;SDS011;13725;51.170;4.442;2024-01-25T10:26:09;49.13;;;15.88;;
25922;SDS011;13725;51.170;4.442;2024-01-25T10:28:35;46.08;;;15.50;;
25922;SDS011;13725;51.170;4.442;2024-01-25T10:31:01;46.65;;;15.32;;
25922;SDS011;13725;51.170;4.442;2024-01-25T10:33:29;47.90;;;14.73;;
25922;SDS011;13725;51.170;4.442;2024-01-25T10:35:56;42.05;;;13.75;;
25922;SDS011;13725;51.170;4.442;2024-01-25T10:38:32;42.55;;;13.23;;
25922;SDS011;13725;51.170;4.442;2024-01-25T10:41:01;45.83;;;13.93;;
25922;SDS011;13725;51.170;4.442;2024-01-25T10:43:31;43.38;;;14.77;;
25922;SDS011;13725;51.170;4.442;2024-01-25T10:45:57;43.67;;;15.70;;
25922;SDS011;13725;51.170;4.442;2024-01-25T10:48:26;37.33;;;14.13;;
25922;SDS011;13725;51.170;4.442;2024-01-25T10:50:56;48.10;;;15.52;;
25922;SDS011;13725;51.170;4.442;2024-01-25T10:53:24;46.72;;;15.88;;
25922;SDS011;13725;51.170;4.442;2024-01-25T10:55:51;52.58;;;16.02;;
25922;SDS011;13725;51.170;4.442;2024-01-25T10:58:18;53.40;;;16.17;;
25922;SDS011;13725;51.170;4.442;2024-01-25T11:00:56;59.55;;;17.40;;
25922;SDS011;13725;51.170;4.442;2024-01-25T11:03:27;51.65;;;16.90;;
25922;SDS011;13725;51.170;4.442;2024-01-25T11:06:05;55.40;;;18.33;;
25922;SDS011;13725;51.170;4.442;2024-01-25T11:08:35;63.22;;;17.75;;
25922;SDS011;13725;51.170;4.442;2024-01-25T11:11:05;60.42;;;18.35;;
25922;SDS011;13725;51.170;4.442;2024-01-25T11:13:34;74.53;;;20.38;;
25922;SDS011;13725;51.170;4.442;2024-01-25T11:18:52;70.38;;;18.75;;
25922;SDS011;13725;51.170;4.442;2024-01-25T11:24:12;83.03;;;22.63;;
25922;SDS011;13725;51.170;4.442;2024-01-25T11:26:51;74.25;;;19.77;;
25922;SDS011;13725;51.170;4.442;2024-01-25T11:29:19;77.93;;;20.27;;
25922;SDS011;13725;51.170;4.442;2024-01-25T11:31:48;92.22;;;20.60;;
25922;SDS011;13725;51.170;4.442;2024-01-25T11:34:16;72.10;;;20.92;;
25922;SDS011;13725;51.170;4.442;2024-01-25T11:36:43;75.00;;;21.50;;
25922;SDS011;13725;51.170;4.442;2024-01-25T11:39:10;69.05;;;20.83;;
25922;SDS011;13725;51.170;4.442;2024-01-25T11:41:40;78.32;;;20.88;;
25922;SDS011;13725;51.170;4.442;2024-01-25T11:44:09;71.97;;;20.02;;
25922;SDS011;13725;51.170;4.442;2024-01-25T11:46:35;68.45;;;21.88;;
25922;SDS011;13725;51.170;4.442;2024-01-25T11:49:01;84.40;;;22.23;;
25922;SDS011;13725;51.170;4.442;2024-01-25T11:51:27;67.03;;;19.40;;
25922;SDS011;13725;51.170;4.442;2024-01-25T11:53:53;76.97;;;21.48;;
25922;SDS011;13725;51.170;4.442;2024-01-25T11:56:28;77.97;;;21.17;;
25922;SDS011;13725;51.170;4.442;2024-01-25T11:58:56;89.10;;;21.67;;
25922;SDS011;13725;51.170;4.442;2024-01-25T12:01:23;76.00;;;21.98;;
25922;SDS011;13725;51.170;4.442;2024-01-25T12:03:50;87.05;;;20.80;;
25922;SDS011;13725;51.170;4.442;2024-01-25T12:06:16;74.85;;;20.60;;
25922;SDS011;13725;51.170;4.442;2024-01-25T12:08:43;80.75;;;20.52;;
25922;SDS011;13725;51.170;4.442;2024-01-25T12:11:10;84.72;;;20.73;;
25922;SDS011;13725;51.170;4.442;2024-01-25T12:13:40;67.20;;;19.30;;
25922;SDS011;13725;51.170;4.442;2024-01-25T12:16:11;70.40;;;19.48;;
25922;SDS011;13725;51.170;4.442;2024-01-25T12:18:37;76.15;;;18.33;;
25922;SDS011;13725;51.170;4.442;2024-01-25T12:21:05;62.45;;;19.38;;
25922;SDS011;13725;51.170;4.442;2024-01-25T12:23:32;73.18;;;17.40;;
25922;SDS011;13725;51.170;4.442;2024-01-25T12:26:01;72.32;;;18.02;;
25922;SDS011;13725;51.170;4.442;2024-01-25T12:28:31;72.57;;;18.35;;
25922;SDS011;13725;51.170;4.442;2024-01-25T12:30:58;72.18;;;17.42;;
25922;SDS011;13725;51.170;4.442;2024-01-25T12:33:25;73.93;;;18.00;;
25922;SDS011;13725;51.170;4.442;2024-01-25T12:35:51;65.25;;;16.55;;
25922;SDS011;13725;51.170;4.442;2024-01-25T12:38:19;69.65;;;16.67;;
25922;SDS011;13725;51.170;4.442;2024-01-25T12:40:46;54.22;;;14.25;;
25922;SDS011;13725;51.170;4.442;2024-01-25T12:43:18;63.38;;;15.00;;
25922;SDS011;13725;51.170;4.442;2024-01-25T12:45:46;60.47;;;14.63;;
25922;SDS011;13725;51.170;4.442;2024-01-25T12:48:12;51.58;;;15.25;;
25922;SDS011;13725;51.170;4.442;2024-01-25T12:50:38;58.63;;;14.95;;
25922;SDS011;13725;51.170;4.442;2024-01-25T12:53:04;60.72;;;14.90;;
25922;SDS011;13725;51.170;4.442;2024-01-25T12:55:30;54.97;;;13.77;;
25922;SDS011;13725;51.170;4.442;2024-01-25T12:57:56;55.72;;;13.80;;
25922;SDS011;13725;51.170;4.442;2024-01-25T13:00:23;55.05;;;13.98;;
25922;SDS011;13725;51.170;4.442;2024-01-25T13:02:49;48.45;;;14.77;;
25922;SDS011;13725;51.170;4.442;2024-01-25T13:05:15;54.17;;;12.82;;
25922;SDS011;13725;51.170;4.442;2024-01-25T13:07:41;38.78;;;12.27;;
25922;SDS011;13725;51.170;4.442;2024-01-25T13:10:10;41.42;;;11.75;;
25922;SDS011;13725;51.170;4.442;2024-01-25T13:12:40;38.08;;;11.82;;
25922;SDS011;13725;51.170;4.442;2024-01-25T13:15:06;50.63;;;12.65;;
25922;SDS011;13725;51.170;4.442;2024-01-25T13:17:34;49.05;;;12.30;;
25922;SDS011;13725;51.170;4.442;2024-01-25T13:20:00;49.22;;;12.07;;
25922;SDS011;13725;51.170;4.442;2024-01-25T13:22:26;41.45;;;10.85;;
25922;SDS011;13725;51.170;4.442;2024-01-25T13:24:52;40.13;;;11.63;;
25922;SDS011;13725;51.170;4.442;2024-01-25T13:27:18;42.35;;;11.77;;
25922;SDS011;13725;51.170;4.442;2024-01-25T13:29:44;37.08;;;10.88;;
25922;SDS011;13725;51.170;4.442;2024-01-25T13:32:09;41.03;;;10.73;;
25922;SDS011;13725;51.170;4.442;2024-01-25T13:34:35;32.65;;;10.02;;
25922;SDS011;13725;51.170;4.442;2024-01-25T13:37:01;35.97;;;10.00;;
25922;SDS011;13725;51.170;4.442;2024-01-25T13:39:27;36.55;;;10.02;;
25922;SDS011;13725;51.170;4.442;2024-01-25T13:41:54;31.73;;;9.43;;
25922;SDS011;13725;51.170;4.442;2024-01-25T13:44:21;32.88;;;9.13;;
25922;SDS011;13725;51.170;4.442;2024-01-25T13:46:47;36.47;;;9.07;;
25922;SDS011;13725;51.170;4.442;2024-01-25T13:49:13;34.25;;;9.27;;
25922;SDS011;13725;51.170;4.442;2024-01-25T13:51:39;33.72;;;8.80;;
25922;SDS011;13725;51.170;4.442;2024-01-25T13:54:04;26.92;;;7.93;;
25922;SDS011;13725;51.170;4.442;2024-01-25T13:56:30;28.60;;;8.18;;
25922;SDS011;13725;51.170;4.442;2024-01-25T13:58:56;25.40;;;8.52;;
25922;SDS011;13725;51.170;4.442;2024-01-25T14:01:23;26.40;;;8.38;;
25922;SDS011;13725;51.170;4.442;2024-01-25T14:03:48;27.35;;;8.40;;
25922;SDS011;13725;51.170;4.442;2024-01-25T14:06:15;28.35;;;8.00;;
25922;SDS011;13725;51.170;4.442;2024-01-25T14:08:41;29.70;;;7.30;;
25922;SDS011;13725;51.170;4.442;2024-01-25T14:11:07;27.63;;;8.07;;
25922;SDS011;13725;51.170;4.442;2024-01-25T14:13:34;30.50;;;7.70;;
25922;SDS011;13725;51.170;4.442;2024-01-25T14:16:00;26.55;;;7.50;;
25922;SDS011;13725;51.170;4.442;2024-01-25T14:18:29;25.17;;;7.55;;
25922;SDS011;13725;51.170;4.442;2024-01-25T14:21:01;27.48;;;8.02;;
25922;SDS011;13725;51.170;4.442;2024-01-25T14:23:26;25.48;;;7.93;;
25922;SDS011;13725;51.170;4.442;2024-01-25T14:25:52;23.02;;;7.72;;
25922;SDS011;13725;51.170;4.442;2024-01-25T14:28:18;17.10;;;7.43;;
25922;SDS011;13725;51.170;4.442;2024-01-25T14:30:44;20.52;;;7.68;;
25922;SDS011;13725;51.170;4.442;2024-01-25T14:33:11;17.70;;;7.20;;
25922;SDS011;13725;51.170;4.442;2024-01-25T14:35:37;17.08;;;7.60;;